»·PEaware :: SWA3865 KSAN-KLAS

SWA3865 :: KSAN-KLAS

FLIGHT INFORMATION

Flight Status: Arrived
Operator:
Southwest Airlines
More flights by this operator :: More flights under this callsign
Pilot: Ben F. (2808)
Aircraft: BOEING 737-300
(B733)
More flights by this aircraft type
Origin: KSAN San Diego Intl-Lindbergh
United States
Destination: KLAS McCarran Intl
United States
More flights between these airports :: More routes between these airports
Route: PADRZ2 CHKNN SEBBY YELAH MISEN KEPEC6
File this flight plan on PilotEdge
Remarks:
Altitude:
(Current/Filed)
29,000ft
Speed:
(Current/Filed)
444kts
Departed: 28-Sep-19 07:38 AM
Arrived: 28-Sep-19 08:33 AM
Distance/Time
Traveled:
225nm/0:54
Distance/Time
To Go:
Arrived

Flight Plot

Page will automatically refresh every two minutes.

Flight plan parsing failed; only flown route is shown


Map Options




Map Legend


Flown Route
Filed Route
Departure Airport
Arrival Airport
Navaid (VOR, NDB)
Fix

Horizontal Profiles

Position Reports

Time Latitude Longitude Heading Altitude Ground
Speed
28-Sep-19 07:16 32.732571 -117.195499 311 24ft 0kts
28-Sep-19 07:17 32.732571 -117.195499 311 24ft 0kts
28-Sep-19 07:18 32.732571 -117.195499 311 24ft 0kts
28-Sep-19 07:19 32.732571 -117.195499 311 24ft 0kts
28-Sep-19 07:20 32.732571 -117.195499 311 24ft 0kts
28-Sep-19 07:21 32.732571 -117.195499 311 24ft 0kts
28-Sep-19 07:22 32.732571 -117.195499 311 24ft 0kts
28-Sep-19 07:23 32.732571 -117.195499 311 24ft 0kts
28-Sep-19 07:24 32.732571 -117.195499 311 24ft 0kts
28-Sep-19 07:25 32.732571 -117.195499 311 24ft 0kts
28-Sep-19 07:26 32.732525 -117.195436 311 24ft 2kts
28-Sep-19 07:27 32.732116 -117.194912 330 24ft 2kts
28-Sep-19 07:28 32.731974 -117.194840 342 24ft 0kts
28-Sep-19 07:29 32.731974 -117.194840 342 24ft 0kts
28-Sep-19 07:29 32.732347 -117.194757 25 24ft 5kts
28-Sep-19 07:31 32.732687 -117.194546 28 24ft 0kts
28-Sep-19 07:31 32.732786 -117.194482 28 24ft 0kts
28-Sep-19 07:32 32.732924 -117.194392 28 24ft 0kts
28-Sep-19 07:34 32.732775 -117.190710 105 24ft 21kts
28-Sep-19 07:34 32.731135 -117.183945 105 24ft 27kts
28-Sep-19 07:35 32.729524 -117.176651 71 24ft 2kts
28-Sep-19 07:36 32.729525 -117.176651 71 24ft 0kts
28-Sep-19 07:37 32.730831 -117.178409 285 24ft 52kts
28-Sep-19 07:38 32.745215 -117.224484 301 1483ft 181kts
28-Sep-19 07:39 32.774402 -117.278190 305 3658ft 220kts
28-Sep-19 07:40 32.815558 -117.344082 307 6056ft 266kts
28-Sep-19 07:41 32.861163 -117.414144 305 9266ft 269kts
28-Sep-19 07:42 32.909241 -117.488680 305 11427ft 304kts
28-Sep-19 07:43 32.964603 -117.575007 305 13307ft 339kts
28-Sep-19 07:44 33.024117 -117.667904 304 14939ft 350kts
28-Sep-19 07:45 33.089749 -117.756525 316 15599ft 361kts
28-Sep-19 07:46 33.166781 -117.834450 315 17951ft 371kts
28-Sep-19 07:47 33.248392 -117.915187 316 20084ft 384kts
28-Sep-19 07:48 33.332649 -117.997398 316 22018ft 395kts
28-Sep-19 07:49 33.419316 -118.082185 316 23797ft 405kts
28-Sep-19 07:50 33.508402 -118.169566 316 25463ft 415kts
28-Sep-19 07:51 33.603106 -118.252214 331 26979ft 431kts
28-Sep-19 07:52 33.712378 -118.311446 330 28610ft 433kts
28-Sep-19 07:53 33.826133 -118.284201 47 28916ft 463kts
28-Sep-19 07:54 33.897037 -118.150001 55 28916ft 476kts
28-Sep-19 07:55 33.969440 -118.010361 56 28909ft 494kts
28-Sep-19 07:56 34.042420 -117.869005 56 28909ft 493kts
28-Sep-19 07:57 34.118813 -117.733195 47 28885ft 491kts
28-Sep-19 07:58 34.207255 -117.605606 48 28911ft 492kts
28-Sep-19 07:59 34.294753 -117.477530 48 28909ft 492kts
28-Sep-19 08:00 34.381542 -117.349795 49 28910ft 493kts
28-Sep-19 08:01 34.467482 -117.222593 49 28911ft 493kts
28-Sep-19 08:02 34.554626 -117.093405 49 28909ft 493kts
28-Sep-19 08:03 34.641871 -116.963590 49 28910ft 493kts
28-Sep-19 08:04 34.728797 -116.833776 49 28909ft 493kts
28-Sep-19 08:05 34.815803 -116.703362 49 28861ft 495kts
28-Sep-19 08:06 34.913774 -116.586273 34 27396ft 489kts
28-Sep-19 08:07 35.021474 -116.482725 35 25406ft 494kts
28-Sep-19 08:08 35.120493 -116.382435 43 23813ft 462kts
28-Sep-19 08:09 35.206800 -116.273279 44 22535ft 459kts
28-Sep-19 08:10 35.293633 -116.164274 43 20555ft 445kts
28-Sep-19 08:11 35.379447 -116.056213 43 18549ft 436kts
28-Sep-19 08:12 35.462319 -115.951532 43 16708ft 412kts
28-Sep-19 08:13 35.539980 -115.853123 43 14993ft 390kts
28-Sep-19 08:14 35.614494 -115.758452 43 13361ft 374kts
28-Sep-19 08:15 35.682775 -115.671299 44 12994ft 344kts
28-Sep-19 08:16 35.749782 -115.586121 33 12994ft 341kts
28-Sep-19 08:17 35.838644 -115.570724 355 13007ft 325kts
28-Sep-19 08:18 35.929429 -115.565963 356 13000ft 325kts
28-Sep-19 08:19 35.994105 -115.496075 71 12488ft 345kts
28-Sep-19 08:20 36.027137 -115.387985 70 11106ft 322kts
28-Sep-19 08:21 36.024957 -115.288207 100 10453ft 297kts
28-Sep-19 08:22 36.017533 -115.187666 99 9000ft 284kts
28-Sep-19 08:23 36.011107 -115.093506 100 7858ft 260kts
28-Sep-19 08:24 36.005886 -115.007955 99 7870ft 245kts
28-Sep-19 08:25 36.043585 -114.944579 11 7381ft 267kts
28-Sep-19 08:26 36.111118 -114.929688 0 6387ft 250kts
28-Sep-19 08:27 36.152502 -114.982791 287 5458ft 204kts
28-Sep-19 08:28 36.165059 -115.052623 269 4633ft 203kts
28-Sep-19 08:29 36.162485 -115.117918 234 3358ft 162kts
28-Sep-19 08:30 36.125264 -115.141914 199 2850ft 141kts
28-Sep-19 08:31 36.092581 -115.160545 201 2150ft 114kts
28-Sep-19 08:32 36.083041 -115.164797 173 2148ft 0kts
28-Sep-19 08:33 36.082002 -115.164105 126 2148ft 13kts
28-Sep-19 08:34 36.081621 -115.158454 90 2148ft 20kts
28-Sep-19 08:35 36.079038 -115.153581 149 2148ft 19kts
28-Sep-19 08:36 36.078517 -115.147216 93 2148ft 16kts

Navigation Log

Ident Type
Flight plan parsing failed, navigation log unavailable